Time;durP1;ratioP1;P1;durP2;ratioP2;P2;SDS_P1;SDS_P2;PMS_P1;PMS_P2;Temp;Humidity;BMP_temperature;BMP_pressure;BME280_temperature;BME280_humidity;BME280_pressure;Samples;Min_cycle;Max_cycle;Signal;HPM_P1;HPM_P2
2023/05/29 04:43:51;;;;;;;10.27;5.43;;;;;;;;;;5134236;27;20287;-85
2023/05/29 05:04:38;;;;;;;8.60;5.63;;;;;;;;;;5155905;27;20266;-84
2023/05/29 05:12:15;;;;;;;12.33;6.10;;;;;;;;;;5072627;28;20591;-85
2023/05/29 05:18:27;;;;;;;9.37;6.17;;;;;;;;;;5135225;27;20265;-85
2023/05/29 05:24:09;;;;;;;11.07;6.23;;;10.90;99.90;;;;;;5136139;27;20574;-85
2023/05/29 05:30:06;;;;;;;12.07;6.53;;;11.30;99.90;;;;;;5074908;28;20583;-84
2023/05/29 05:35:47;;;;;;;9.03;5.80;;;;;;;;;;5181450;27;20364;-86
2023/05/29 05:41:38;;;;;;;9.90;6.33;;;11.70;99.90;;;;;;5136311;27;20285;-86
2023/05/29 05:46:13;;;;;;;10.37;6.20;;;;;;;;;;5139514;27;20271;-85
2023/05/29 05:51:12;;;;;;;10.20;6.57;;;;;;;;;;5137685;27;20598;-85
2023/05/29 05:56:04;;;;;;;9.40;6.57;;;;;;;;;;5139497;27;20266;-85
2023/05/29 06:00:58;;;;;;;14.00;6.40;;;12.80;99.90;;;;;;5138019;27;20658;-84
2023/05/29 06:05:50;;;;;;;11.10;6.20;;;12.60;99.90;;;;;;5118158;27;20268;-85
2023/05/29 06:10:42;;;;;;;10.27;6.80;;;;;;;;;;5086820;28;20525;-84
2023/05/29 06:14:30;;;;;;;14.53;7.03;;;12.80;99.90;;;;;;5148755;27;20552;-84
2023/05/29 06:18:25;;;;;;;12.23;6.37;;;12.90;99.90;;;;;;5142099;27;20278;-84
2023/05/29 06:22:20;;;;;;;9.30;6.43;;;13.10;99.90;;;;;;5139676;27;20266;-84
2023/05/29 06:26:16;;;;;;;13.67;7.03;;;13.30;99.90;;;;;;5143776;27;20741;-86
2023/05/29 06:30:13;;;;;;;11.03;6.53;;;13.40;99.90;;;;;;5136005;27;20267;-82
2023/05/29 06:34:11;;;;;;;9.87;6.57;;;13.60;99.90;;;;;;5075984;28;20603;-84
2023/05/29 06:38:08;;;;;;;12.03;7.23;;;13.70;99.90;;;;;;5137156;27;20277;-84
2023/05/29 06:42:08;;;;;;;12.63;6.47;;;13.90;99.90;;;;;;5136260;27;20267;-83
2023/05/29 06:46:06;;;;;;;11.07;7.10;;;14.20;99.90;;;;;;5138570;27;20263;-84
2023/05/29 06:50:06;;;;;;;11.27;6.57;;;14.30;99.90;;;;;;5117739;27;20269;-84
2023/05/29 06:54:06;;;;;;;10.70;7.00;;;14.50;99.90;;;;;;5138703;27;20779;-83
2023/05/29 06:58:05;;;;;;;15.37;8.57;;;14.80;99.90;;;;;;5138962;27;20277;-80
2023/05/29 07:02:05;;;;;;;15.23;7.23;;;15.00;99.90;;;;;;5159279;27;20628;-82
2023/05/29 07:06:05;;;;;;;12.10;6.90;;;15.00;99.90;;;;;;5139702;27;20272;-83
2023/05/29 07:10:05;;;;;;;12.80;6.47;;;15.20;99.90;;;;;;5137099;27;20282;-80
2023/05/29 07:12:31;;;;;;;11.40;6.77;;;15.50;99.90;;;;;;5118376;28;20285;-83
2023/05/29 07:17:02;;;;;;;9.83;6.27;;;15.70;99.90;;;;;;5078211;28;20639;-83
2023/05/29 07:19:29;;;;;;;8.87;6.50;;;15.90;99.90;;;;;;5076724;28;20185;-82
2023/05/29 07:21:54;;;;;;;8.90;6.07;;;16.00;99.90;;;;;;5078624;28;20166;-83
2023/05/29 07:24:20;;;;;;;8.70;5.77;;;16.10;99.90;;;;;;5078350;28;20215;-81
2023/05/29 07:26:46;;;;;;;9.73;6.57;;;16.20;99.90;;;;;;5078472;28;20260;-83
2023/05/29 07:29:12;;;;;;;11.77;6.73;;;16.40;99.90;;;;;;5078256;28;20212;-82
2023/05/29 07:31:40;;;;;;;11.03;6.60;;;16.60;99.90;;;;;;5077839;28;20179;-83
2023/05/29 07:34:06;;;;;;;12.17;6.10;;;16.80;99.90;;;;;;5078444;28;20587;-83
2023/05/29 07:36:32;;;;;;;12.67;7.00;;;16.80;99.90;;;;;;5085777;28;20630;-82
2023/05/29 07:39:01;;;;;;;9.20;6.50;;;17.00;99.90;;;;;;5087808;28;20647;-83
2023/05/29 07:41:26;;;;;;;9.70;6.53;;;17.20;99.90;;;;;;5086513;28;20181;-85
2023/05/29 07:43:52;;;;;;;9.43;6.00;;;17.30;99.90;;;;;;5081209;28;20278;-85
2023/05/29 07:46:19;;;;;;;7.10;4.80;;;17.50;99.90;;;;;;5082141;28;20174;-83
2023/05/29 07:48:46;;;;;;;9.67;5.47;;;17.70;99.90;;;;;;5075326;28;20174;-84
2023/05/29 07:51:12;;;;;;;7.03;5.57;;;17.90;99.90;;;;;;5071757;28;20179;-80
2023/05/29 07:53:38;;;;;;;9.60;5.23;;;18.10;99.90;;;;;;5072388;28;20196;-79
2023/05/29 07:56:04;;;;;;;7.73;5.50;;;18.30;99.90;;;;;;5073660;28;20742;-78
2023/05/29 07:58:29;;;;;;;10.27;6.40;;;18.40;99.90;;;;;;5074153;28;20175;-78
2023/05/29 08:00:55;;;;;;;10.73;6.13;;;18.50;99.90;;;;;;5073482;28;20172;-81
2023/05/29 08:03:21;;;;;;;8.20;6.27;;;18.50;99.90;;;;;;5073428;28;20270;-82
2023/05/29 08:05:46;;;;;;;10.87;6.10;;;18.60;99.90;;;;;;5072836;28;20187;-82
2023/05/29 08:08:12;;;;;;;13.20;6.77;;;18.80;99.90;;;;;;5073031;28;20183;-82
2023/05/29 08:10:38;;;;;;;10.63;6.40;;;19.00;99.90;;;;;;5071140;28;20188;-84
2023/05/29 08:13:04;;;;;;;10.57;6.97;;;19.10;99.90;;;;;;5070475;28;20236;-83
2023/05/29 08:15:31;;;;;;;9.13;5.93;;;19.30;99.90;;;;;;5070018;28;20247;-83
2023/05/29 08:17:57;;;;;;;7.23;5.70;;;19.50;99.90;;;;;;5071793;28;20239;-83
2023/05/29 08:20:23;;;;;;;9.00;5.63;;;19.70;99.90;;;;;;5072788;28;20229;-81
2023/05/29 08:22:48;;;;;;;7.73;5.47;;;19.80;99.90;;;;;;5071569;28;20196;-79
2023/05/29 08:25:14;;;;;;;8.30;5.50;;;20.00;99.90;;;;;;5072315;28;20169;-81
2023/05/29 08:27:40;;;;;;;8.20;6.17;;;20.10;99.90;;;;;;5061865;28;20177;-82
2023/05/29 08:30:06;;;;;;;13.43;6.30;;;20.40;99.90;;;;;;5059911;28;20670;-83
2023/05/29 08:32:31;;;;;;;10.37;5.37;;;20.60;99.90;;;;;;5058039;28;20279;-83
2023/05/29 08:34:57;;;;;;;8.73;5.40;;;20.80;99.90;;;;;;5059215;28;20189;-82
2023/05/29 08:37:23;;;;;;;9.07;5.43;;;21.00;99.90;;;;;;5059661;28;20170;-82
2023/05/29 08:39:50;;;;;;;6.57;5.00;;;21.00;99.90;;;;;;5057437;28;20176;-82
2023/05/29 08:42:29;;;;;;;6.77;5.10;;;21.10;99.90;;;;;;5058674;28;20559;-82
2023/05/29 08:44:59;;;;;;;6.50;4.83;;;21.10;99.90;;;;;;5056982;28;20173;-78
2023/05/29 08:47:27;;;;;;;6.30;5.00;;;21.30;99.90;;;;;;5057973;28;20189;-80
2023/05/29 08:49:53;;;;;;;6.93;4.87;;;21.50;99.90;;;;;;5059422;28;20235;-79
2023/05/29 08:52:26;;;;;;;8.33;4.90;;;21.60;99.90;;;;;;5059470;28;20697;-80
2023/05/29 08:54:55;;;;;;;9.63;5.20;;;21.70;99.90;;;;;;5060725;28;20156;-81
2023/05/29 08:57:23;;;;;;;7.03;4.23;;;22.10;99.90;;;;;;5062187;28;20166;-80
2023/05/29 08:59:52;;;;;;;7.47;4.90;;;22.10;99.90;;;;;;5062922;28;20176;-81
2023/05/29 09:02:18;;;;;;;6.17;4.70;;;22.20;99.90;;;;;;5060804;28;20173;-81
2023/05/29 09:04:49;;;;;;;8.20;4.43;;;22.30;99.90;;;;;;5063502;28;20175;-81
2023/05/29 09:07:18;;;;;;;6.00;3.83;;;22.30;99.90;;;;;;5065351;28;20162;-81
2023/05/29 09:09:45;;;;;;;5.47;4.13;;;22.40;99.70;;;;;;5061501;28;20192;-88
2023/05/29 09:12:11;;;;;;;6.57;4.37;;;22.70;97.90;;;;;;5059690;28;20177;-81
2023/05/29 09:14:44;;;;;;;10.07;4.17;;;22.70;98.50;;;;;;5061069;28;20656;-80
2023/05/29 09:17:11;;;;;;;8.43;4.37;;;22.70;96.40;;;;;;5061661;28;20631;-82
2023/05/29 09:19:40;;;;;;;4.57;3.70;;;22.60;95.80;;;;;;5062554;28;20176;-81
2023/05/29 09:22:13;;;;;;;5.60;3.97;;;22.90;97.00;;;;;;5063232;28;20169;-82
2023/05/29 09:24:39;;;;;;;6.93;4.33;;;23.20;92.60;;;;;;5063324;28;20669;-82
2023/05/29 09:27:07;;;;;;;6.97;3.93;;;23.20;93.00;;;;;;5069932;28;20183;-83
2023/05/29 09:29:37;;;;;;;4.40;3.90;;;23.30;92.00;;;;;;5073879;28;20191;-81
2023/05/29 09:32:10;;;;;;;5.90;4.30;;;23.40;93.90;;;;;;5068094;28;20171;-82
2023/05/29 09:34:36;;;;;;;5.23;4.20;;;23.40;93.30;;;;;;5068881;28;20165;-81
2023/05/29 09:37:07;;;;;;;7.53;4.53;;;23.60;93.00;;;;;;5071097;28;20236;-82
2023/05/29 09:39:46;;;;;;;6.40;4.37;;;23.90;93.30;;;;;;5057603;28;20243;-81
2023/05/29 09:42:13;;;;;;;6.00;4.27;;;24.50;90.20;;;;;;5057935;28;20185;-81
2023/05/29 09:44:46;;;;;;;7.33;4.40;;;24.50;89.40;;;;;;5063099;28;20173;-82
2023/05/29 09:47:21;;;;;;;7.57;4.63;;;24.40;90.00;;;;;;5058348;28;20178;-81
2023/05/29 09:49:47;;;;;;;5.97;4.00;;;24.30;85.60;;;;;;5061752;28;20177;-80
2023/05/29 09:52:16;;;;;;;8.67;4.13;;;24.50;86.10;;;;;;5064124;28;20699;-81
2023/05/29 09:54:46;;;;;;;5.87;4.17;;;24.50;87.80;;;;;;5063277;28;20183;-83
2023/05/29 09:57:16;;;;;;;7.50;4.33;;;24.50;83.80;;;;;;5057813;28;20178;-81
2023/05/29 09:59:44;;;;;;;6.00;4.10;;;24.60;86.00;;;;;;5056130;28;20170;-80
2023/05/29 10:02:13;;;;;;;5.40;3.90;;;24.90;87.90;;;;;;5057071;28;20696;-84
2023/05/29 10:04:40;;;;;;;6.63;4.10;;;25.10;82.90;;;;;;5055013;28;20173;-81
2023/05/29 10:07:12;;;;;;;7.93;4.23;;;25.20;82.50;;;;;;5055557;28;20273;-83
2023/05/29 10:09:43;;;;;;;5.60;4.10;;;25.20;82.20;;;;;;5057660;28;20203;-82
2023/05/29 10:12:15;;;;;;;5.53;4.53;;;25.20;85.70;;;;;;5056017;28;20210;-80
2023/05/29 10:14:42;;;;;;;6.17;4.30;;;25.20;81.60;;;;;;5056783;28;20170;-85
2023/05/29 10:17:12;;;;;;;4.93;3.97;;;25.00;81.80;;;;;;5057297;28;20546;-83
2023/05/29 10:19:39;;;;;;;5.87;4.30;;;25.10;77.30;;;;;;5055018;28;20181;-80
2023/05/29 10:22:06;;;;;;;6.00;4.53;;;25.10;78.30;;;;;;5054063;28;20264;-81
2023/05/29 10:24:33;;;;;;;7.03;3.97;;;25.10;73.20;;;;;;5057616;28;20178;-81
2023/05/29 10:26:59;;;;;;;6.63;4.93;;;25.00;76.50;;;;;;5060334;28;20180;-81
2023/05/29 10:30:05;;;;;;;6.43;4.50;;;25.30;84.80;;;;;;5054906;28;20659;-82
2023/05/29 10:32:59;;;;;;;6.93;4.20;;;25.60;73.40;;;;;;5054916;28;20209;-80
2023/05/29 10:35:36;;;;;;;7.67;4.47;;;25.50;74.00;;;;;;5053036;28;20216;-80
2023/05/29 10:38:08;;;;;;;5.40;4.03;;;25.50;74.40;;;;;;5053863;28;20358;-81
2023/05/29 10:40:34;;;;;;;5.17;3.80;;;25.90;74.30;;;;;;5055126;28;20158;-85
2023/05/29 10:43:00;;;;;;;6.70;3.97;;;26.30;74.80;;;;;;5052251;28;20213;-76
2023/05/29 10:45:32;;;;;;;5.40;4.20;;;26.40;69.10;;;;;;5054720;28;20177;-76
2023/05/29 10:48:06;;;;;;;5.47;4.20;;;26.50;77.20;;;;;;5056005;28;20182;-79
2023/05/29 10:50:37;;;;;;;5.87;4.20;;;26.70;70.40;;;;;;5056446;28;20186;-78
2023/05/29 10:53:02;;;;;;;7.83;4.47;;;26.90;71.40;;;;;;5058035;28;20246;-79
2023/05/29 10:55:38;;;;;;;5.50;4.13;;;27.00;70.40;;;;;;5055312;28;20197;-79
2023/05/29 10:58:20;;;;;;;6.07;4.17;;;27.30;75.10;;;;;;5054448;28;20254;-79
2023/05/29 11:00:47;;;;;;;5.57;4.40;;;27.30;68.20;;;;;;5053681;28;20635;-80
2023/05/29 11:03:23;;;;;;;7.37;4.27;;;27.20;61.90;;;;;;5055319;28;20239;-76
2023/05/29 11:06:07;;;;;;;7.17;4.50;;;27.20;62.10;;;;;;5055354;28;20163;-79
2023/05/29 11:08:55;;;;;;;8.23;4.30;;;27.20;67.20;;;;;;5053747;28;20243;-78
2023/05/29 11:11:27;;;;;;;7.67;4.73;;;27.30;63.00;;;;;;5055239;28;20180;-78
2023/05/29 11:13:55;;;;;;;6.27;4.10;;;27.20;64.10;;;;;;5057015;28;20666;-81
2023/05/29 11:16:23;;;;;;;5.67;4.30;;;27.10;61.90;;;;;;5055734;28;20243;-83
2023/05/29 11:18:49;;;;;;;7.13;4.40;;;27.10;65.30;;;;;;5055627;28;20189;-80
2023/05/29 11:21:36;;;;;;;5.23;4.37;;;27.10;62.80;;;;;;5055421;28;20175;-82
2023/05/29 11:24:04;;;;;;;4.53;3.93;;;27.20;70.30;;;;;;5054786;28;20236;-81
2023/05/29 11:26:31;;;;;;;5.83;4.90;;;27.60;65.90;;;;;;5059572;28;20502;-82
2023/05/29 11:29:00;;;;;;;5.80;4.10;;;27.70;61.50;;;;;;5055288;28;20173;-84
2023/05/29 11:31:31;;;;;;;5.93;4.27;;;28.10;70.30;;;;;;5053361;28;20190;-79
2023/05/29 11:34:00;;;;;;;6.30;3.90;;;28.50;61.00;;;;;;5053721;28;20205;-80
2023/05/29 11:36:27;;;;;;;6.83;4.70;;;28.80;64.10;;;;;;5055520;28;20194;-81
2023/05/29 11:38:53;;;;;;;8.20;3.90;;;29.10;57.80;;;;;;5056599;28;20166;-81
2023/05/29 11:41:18;;;;;;;6.60;4.13;;;29.40;59.70;;;;;;5056121;28;20178;-82
2023/05/29 11:43:45;;;;;;;5.63;4.23;;;29.70;58.30;;;;;;5061496;28;20197;-80
2023/05/29 11:46:18;;;;;;;6.10;4.00;;;29.30;52.70;;;;;;5054856;28;20184;-79
2023/05/29 11:48:45;;;;;;;9.83;3.77;;;29.30;56.60;;;;;;5054998;28;20191;-81
2023/05/29 11:51:12;;;;;;;5.33;3.83;;;29.70;55.10;;;;;;5055380;28;20660;-81
2023/05/29 11:53:41;;;;;;;7.37;3.83;;;29.70;58.20;;;;;;5056117;28;20272;-85
2023/05/29 11:56:10;;;;;;;7.40;4.07;;;29.60;56.40;;;;;;5055518;28;20220;-84
2023/05/29 11:58:39;;;;;;;5.67;4.50;;;29.20;57.50;;;;;;5053930;28;20200;-85
2023/05/29 12:01:06;;;;;;;4.20;3.43;;;29.30;55.90;;;;;;5055945;28;20653;-83
2023/05/29 12:03:40;;;;;;;5.13;3.97;;;29.40;53.40;;;;;;5057456;28;20201;-83
2023/05/29 12:06:07;;;;;;;10.27;4.30;;;29.70;55.20;;;;;;5058910;28;20212;-83
2023/05/29 12:08:33;;;;;;;6.37;3.87;;;29.90;53.60;;;;;;5058742;28;20315;-83
2023/05/29 12:10:59;;;;;;;8.20;4.23;;;29.80;55.00;;;;;;5058263;28;20202;-85
2023/05/29 12:13:25;;;;;;;6.77;3.70;;;30.30;52.10;;;;;;5058498;28;20198;-79
2023/05/29 12:15:56;;;;;;;5.40;4.00;;;30.20;52.90;;;;;;5058278;28;20213;-83
2023/05/29 12:18:22;;;;;;;6.03;3.70;;;29.80;53.30;;;;;;5057860;28;20181;-84
2023/05/29 12:20:48;;;;;;;6.47;3.87;;;30.00;55.30;;;;;;5058349;28;20182;-82
2023/05/29 12:23:14;;;;;;;4.90;3.60;;;30.30;50.50;;;;;;5057602;28;20283;-82
2023/05/29 12:25:40;;;;;;;6.03;3.83;;;30.00;53.10;;;;;;5059399;28;20251;-83
2023/05/29 12:28:06;;;;;;;6.10;4.13;;;30.20;52.50;;;;;;5060771;28;20228;-83
2023/05/29 12:30:38;;;;;;;5.33;3.60;;;30.70;52.10;;;;;;5060655;28;20666;-83
2023/05/29 12:33:06;;;;;;;4.17;3.40;;;31.20;56.90;;;;;;5061214;28;20201;-83
2023/05/29 12:35:31;;;;;;;7.37;4.17;;;31.60;59.30;;;;;;5064126;28;20217;-81
2023/05/29 12:38:00;;;;;;;8.87;3.70;;;31.70;52.30;;;;;;5077934;28;20249;-84
2023/05/29 12:40:29;;;;;;;7.27;3.77;;;31.40;51.80;;;;;;5076662;28;20201;-81
2023/05/29 12:43:00;;;;;;;4.77;3.50;;;31.60;57.70;;;;;;5073033;28;20642;-79
2023/05/29 12:45:28;;;;;;;5.53;3.73;;;31.40;51.80;;;;;;5072652;28;20174;-83
2023/05/29 12:48:01;;;;;;;7.40;3.43;;;31.30;49.70;;;;;;5059018;28;20214;-85
2023/05/29 12:50:32;;;;;;;5.40;4.30;;;31.20;53.60;;;;;;5059064;28;20643;-83
2023/05/29 12:53:03;;;;;;;8.33;3.97;;;31.10;52.60;;;;;;5059561;28;20248;-81
2023/05/29 12:55:33;;;;;;;4.23;3.30;;;30.90;51.30;;;;;;5060836;28;20213;-84
2023/05/29 12:57:59;;;;;;;4.40;3.33;;;30.90;51.40;;;;;;5063887;28;20193;-83
2023/05/29 13:00:26;;;;;;;4.87;3.40;;;30.90;48.80;;;;;;5068744;28;20174;-83
2023/05/29 13:02:51;;;;;;;6.73;3.90;;;30.70;50.00;;;;;;5057896;28;20205;-80
2023/05/29 13:05:18;;;;;;;5.43;3.53;;;30.60;50.40;;;;;;5058368;28;20629;-82
2023/05/29 13:07:47;;;;;;;5.80;4.03;;;30.40;52.90;;;;;;5056425;28;20182;-82
2023/05/29 13:10:14;;;;;;;4.83;3.40;;;30.40;51.90;;;;;;5057476;28;20174;-83
2023/05/29 13:12:41;;;;;;;5.03;3.40;;;30.70;51.90;;;;;;5058018;28;20208;-82
2023/05/29 13:15:07;;;;;;;5.23;3.60;;;30.30;53.20;;;;;;5056880;28;20213;-82
2023/05/29 13:17:33;;;;;;;4.50;3.60;;;29.70;49.30;;;;;;5058429;28;20173;-83
2023/05/29 13:19:59;;;;;;;3.83;3.40;;;29.40;52.10;;;;;;5057186;28;20186;-82
2023/05/29 13:22:30;;;;;;;5.83;3.77;;;29.70;54.40;;;;;;5056094;28;20182;-82
2023/05/29 13:24:57;;;;;;;6.07;3.57;;;29.80;51.30;;;;;;5058228;28;20223;-83
2023/05/29 13:27:23;;;;;;;5.40;3.27;;;29.80;50.20;;;;;;5057687;28;20209;-84
2023/05/29 13:29:49;;;;;;;8.03;3.57;;;30.00;52.60;;;;;;5057335;28;20194;-83
2023/05/29 13:32:15;;;;;;;4.20;3.80;;;30.40;50.90;;;;;;5056740;28;20178;-83
2023/05/29 13:34:41;;;;;;;5.90;3.90;;;30.30;51.20;;;;;;5057199;28;20279;-83
2023/05/29 13:37:07;;;;;;;5.20;3.87;;;30.00;51.40;;;;;;5057401;28;20210;-82
2023/05/29 13:39:33;;;;;;;5.93;3.77;;;30.00;51.80;;;;;;5058909;28;20195;-85
2023/05/29 13:41:59;;;;;;;4.80;3.27;;;29.60;53.10;;;;;;5058989;28;20174;-84
2023/05/29 13:44:24;;;;;;;4.87;3.67;;;29.80;52.70;;;;;;5060062;28;20269;-81
2023/05/29 13:46:50;;;;;;;6.03;3.73;;;29.70;53.80;;;;;;5057700;28;20185;-82
2023/05/29 13:49:16;;;;;;;6.33;3.37;;;29.60;52.70;;;;;;5058784;28;20185;-82
2023/05/29 13:51:42;;;;;;;4.70;3.30;;;29.40;54.90;;;;;;5057047;28;20264;-80
2023/05/29 13:54:07;;;;;;;4.20;3.40;;;29.70;55.20;;;;;;5059467;28;20719;-83
2023/05/29 13:56:33;;;;;;;5.87;3.40;;;29.90;51.30;;;;;;5059018;28;20208;-81
2023/05/29 13:59:03;;;;;;;4.60;3.17;;;29.80;50.70;;;;;;5060846;28;20184;-81
2023/05/29 14:01:30;;;;;;;6.03;3.30;;;30.00;51.60;;;;;;5064309;28;20150;-79
2023/05/29 14:03:56;;;;;;;4.93;3.10;;;30.10;52.50;;;;;;5065623;28;20189;-83
2023/05/29 14:06:21;;;;;;;4.10;3.13;;;30.20;50.60;;;;;;5061183;28;20173;-83
2023/05/29 14:08:47;;;;;;;6.90;3.33;;;30.30;54.30;;;;;;5056624;28;20236;-82
2023/05/29 14:11:13;;;;;;;4.53;3.10;;;30.40;51.90;;;;;;5057993;28;20182;-82
2023/05/29 14:13:38;;;;;;;4.43;3.53;;;30.70;56.00;;;;;;5057803;28;20208;-85
2023/05/29 14:16:04;;;;;;;7.50;3.53;;;30.30;51.00;;;;;;5061584;28;20220;-83
2023/05/29 14:18:30;;;;;;;4.20;3.50;;;29.40;51.90;;;;;;5058790;28;20170;-82
2023/05/29 14:20:56;;;;;;;7.23;3.50;;;29.00;53.20;;;;;;5058124;28;20179;-84
2023/05/29 14:23:21;;;;;;;4.53;3.40;;;29.20;54.10;;;;;;5057946;28;20191;-82
2023/05/29 14:25:47;;;;;;;5.03;3.50;;;29.30;51.60;;;;;;5055978;28;20184;-81
2023/05/29 14:28:13;;;;;;;3.33;3.03;;;29.10;52.40;;;;;;5058264;28;20186;-83
2023/05/29 14:30:38;;;;;;;3.77;3.20;;;29.40;53.90;;;;;;5058136;28;20178;-82
2023/05/29 14:33:04;;;;;;;5.77;3.33;;;29.50;51.40;;;;;;5057723;28;20209;-81
2023/05/29 14:35:30;;;;;;;7.60;3.70;;;29.40;51.20;;;;;;5060839;28;20212;-83
2023/05/29 14:37:59;;;;;;;5.97;3.30;;;29.00;52.70;;;;;;5063635;28;20181;-80
2023/05/29 14:40:25;;;;;;;5.37;3.47;;;28.70;51.20;;;;;;5056135;28;20208;-83
2023/05/29 14:42:50;;;;;;;3.67;3.00;;;28.90;51.20;;;;;;5057026;28;20263;-81
2023/05/29 14:45:17;;;;;;;3.60;2.97;;;29.10;53.90;;;;;;5056303;28;20667;-81
2023/05/29 14:47:43;;;;;;;4.03;3.07;;;28.90;51.70;;;;;;5055086;28;20185;-80
2023/05/29 14:50:09;;;;;;;7.10;3.40;;;28.80;51.50;;;;;;5056773;28;20228;-81
2023/05/29 14:52:35;;;;;;;4.57;3.13;;;28.70;51.70;;;;;;5054709;28;20188;-80
2023/05/29 14:55:02;;;;;;;5.20;2.90;;;28.70;51.40;;;;;;5056467;28;20178;-83
2023/05/29 14:57:30;;;;;;;5.47;2.90;;;28.90;52.80;;;;;;5055707;28;20205;-83
2023/05/29 14:59:56;;;;;;;3.80;2.90;;;28.90;51.30;;;;;;5055076;28;20297;-81
2023/05/29 15:02:21;;;;;;;7.30;3.30;;;29.20;49.80;;;;;;5055204;28;20213;-81
2023/05/29 15:04:47;;;;;;;5.33;3.00;;;29.30;50.00;;;;;;5056171;28;20248;-82
2023/05/29 15:07:13;;;;;;;6.50;3.23;;;29.40;49.60;;;;;;5054489;28;20271;-81
2023/05/29 15:09:39;;;;;;;6.87;3.00;;;29.20;49.50;;;;;;5056074;28;20198;-82
2023/05/29 15:12:06;;;;;;;7.97;3.33;;;29.10;51.10;;;;;;5055098;28;20269;-82
2023/05/29 15:14:32;;;;;;;6.20;3.30;;;29.00;51.20;;;;;;5056370;28;20203;-82
2023/05/29 15:16:58;;;;;;;6.07;3.20;;;29.00;51.60;;;;;;5057381;28;20261;-84
2023/05/29 15:19:23;;;;;;;4.23;3.00;;;28.90;49.80;;;;;;5057838;28;20181;-83
2023/05/29 15:21:49;;;;;;;8.20;3.23;;;28.50;51.00;;;;;;5058273;28;20207;-87
2023/05/29 15:24:15;;;;;;;6.07;2.93;;;28.50;50.40;;;;;;5058862;28;20629;-88
2023/05/29 15:26:40;;;;;;;5.83;2.90;;;28.40;52.30;;;;;;5058344;28;20192;-89
2023/05/29 15:29:06;;;;;;;4.60;2.93;;;28.40;51.20;;;;;;5059166;28;20180;-90
2023/05/29 15:31:32;;;;;;;4.97;3.00;;;28.40;49.70;;;;;;5059509;28;20183;-85
2023/05/29 15:33:57;;;;;;;6.60;3.23;;;28.60;51.60;;;;;;5066434;28;20565;-89
2023/05/29 15:36:23;;;;;;;4.80;3.00;;;28.60;51.90;;;;;;5063545;28;20578;-81
2023/05/29 15:38:49;;;;;;;4.27;3.10;;;28.00;50.00;;;;;;5071269;28;20195;-81
2023/05/29 15:41:16;;;;;;;5.27;2.70;;;27.60;51.10;;;;;;5071204;28;20179;-84
2023/05/29 15:43:41;;;;;;;3.40;2.77;;;27.40;52.20;;;;;;5053090;28;20199;-87
2023/05/29 15:46:08;;;;;;;9.53;3.27;;;27.30;53.30;;;;;;5063435;28;20611;-85
2023/05/29 15:48:34;;;;;;;7.63;3.33;;;26.80;52.50;;;;;;5060768;28;20179;-86
2023/05/29 15:50:59;;;;;;;4.47;3.20;;;26.50;51.40;;;;;;5060928;28;20253;-85
2023/05/29 15:53:25;;;;;;;4.43;3.03;;;26.70;52.60;;;;;;5060997;28;20223;-84
2023/05/29 15:55:51;;;;;;;4.50;2.97;;;26.70;53.00;;;;;;5062341;28;20198;-85
2023/05/29 15:58:16;;;;;;;4.67;3.13;;;26.80;51.70;;;;;;5061413;28;20252;-84
2023/05/29 16:00:42;;;;;;;5.00;2.90;;;26.80;52.50;;;;;;5062054;28;20178;-85
2023/05/29 16:03:08;;;;;;;5.40;3.07;;;26.50;50.70;;;;;;5061090;28;20215;-86
2023/05/29 16:05:35;;;;;;;7.87;2.90;;;26.10;51.70;;;;;;5062980;28;20540;-88
2023/05/29 16:08:00;;;;;;;4.87;2.70;;;25.90;52.80;;;;;;5067181;28;20178;-86
2023/05/29 16:10:27;;;;;;;4.20;2.90;;;25.50;52.80;;;;;;5066379;28;20176;-87
2023/05/29 16:12:54;;;;;;;4.53;2.80;;;25.50;52.70;;;;;;5067900;28;20206;-86
2023/05/29 16:15:20;;;;;;;7.03;3.07;;;25.50;55.00;;;;;;5061483;28;20216;-81
2023/05/29 16:17:46;;;;;;;4.20;3.23;;;25.20;53.90;;;;;;5059694;28;20177;-84
2023/05/29 16:20:12;;;;;;;8.97;2.97;;;24.80;54.80;;;;;;5059489;28;20747;-83
2023/05/29 16:22:39;;;;;;;7.97;3.50;;;24.50;54.90;;;;;;5058173;28;20208;-86
2023/05/29 16:25:05;;;;;;;4.87;3.40;;;24.20;56.90;;;;;;5061114;28;20177;-85
2023/05/29 16:27:31;;;;;;;6.87;3.07;;;23.80;56.00;;;;;;5060786;28;20181;-86
2023/05/29 16:29:57;;;;;;;4.30;2.93;;;23.50;57.30;;;;;;5059616;28;20178;-85
2023/05/29 16:32:23;;;;;;;5.30;3.17;;;23.20;56.80;;;;;;5058106;28;20177;-83
2023/05/29 16:34:50;;;;;;;5.60;3.37;;;22.80;57.10;;;;;;5058216;28;20202;-83
2023/05/29 16:37:15;;;;;;;7.37;3.00;;;22.40;58.30;;;;;;5059959;28;20187;-86
2023/05/29 16:39:41;;;;;;;6.50;3.40;;;22.00;58.20;;;;;;5059711;28;20631;-86
2023/05/29 16:42:08;;;;;;;6.30;3.30;;;21.80;58.50;;;;;;5060110;28;20278;-85
2023/05/29 16:44:34;;;;;;;7.20;3.00;;;21.70;59.70;;;;;;5059281;28;20201;-86
2023/05/29 16:46:59;;;;;;;9.23;3.53;;;21.60;58.60;;;;;;5060631;28;20626;-86
2023/05/29 16:49:25;;;;;;;7.37;2.97;;;21.50;60.50;;;;;;5065564;28;20186;-82
2023/05/29 16:51:52;;;;;;;4.50;3.10;;;21.40;59.90;;;;;;5056587;28;20209;-81
2023/05/29 16:54:18;;;;;;;3.47;2.83;;;21.20;59.80;;;;;;5057786;28;20208;-83
2023/05/29 16:56:44;;;;;;;6.13;2.90;;;21.10;59.40;;;;;;5058933;28;20212;-82
2023/05/29 17:20:20;;;;;;;5.07;3.20;;;20.40;60.50;;;;;;5134962;27;20267;-82
2023/05/29 17:31:22;;;;;;;4.73;3.07;;;20.30;63.00;;;;;;5134267;27;20267;-79
2023/05/29 17:43:24;;;;;;;5.03;3.10;;;20.00;65.10;;;;;;5094950;28;20365;-80
2023/05/29 17:57:59;;;;;;;8.73;3.17;;;19.60;63.60;;;;;;5136245;27;20279;-82
2023/05/29 18:22:07;;;;;;;4.27;2.83;;;18.90;68.80;;;;;;5135382;27;20274;-83
